Aktualne dane pomiarowe

Uwaga, wersja testowa! Automatyczne pobieranie danych za pomocą narzędzi lub skryptów to umożliwiających jest zabronione.

Dane meteo z obszaru Polski uzyskane na podstawie depesz SYNOP pobieranych co godzinę z NWS. Najedź myszką na symbol przedstawiony w tabeli, aby uzyskać informacje co do jego znaczenia. Prosimy pamiętać, że to testowa wersja strony, która jeszcze nie jest ukończona. Stworzono również jest krótki FAQ dotyczący korzystania z tej podstrony Anomalie temperatury w chwili obecnej odniesione są do okresu referencyjnego 1951-2016. Okres ten będzie później zmieniony na 1981-2010. Kliknij ikonę aby pobrać plik CSV. Kliknij ikonę aby wygenerować mapę synoptyczną dla danego terminu.

Wybierz Datę:    

        

Sandomierz (12585)

Dane terminowe dla wybranej stacji. Kliknij datę, aby otrzymać dane z tego terminu dla wszystkich stacji.

TemperaturaZachmurzenieWiatrCiśnienieOpadyPogoda
 Data t td wb tx tn tg rh  Nt Nl Cl Cm Ch ws wd g1 g2 wx mslp ppp ch 24h 12h t ww ww w1 w2  
2019-08-08 23:00:00 16.7 14.2 15.0--- 8519.0--3wx--31013.4 987.6 0.6---------
2019-08-08 22:00:00 17.8 13.5 14.9--- 7630.0--3wx--31013.2 987.5 0.7---------
2019-08-08 21:00:00 17.9 13.2 14.8--- 7435.0--2wx--21013.0 987.3 0.7---------
2019-08-08 20:00:00 18.6 13.7 15.4--- 7330.0--2wx---1012.6 987.0 0.8---------
2019-08-08 19:00:00 19.5 13.7 15.7--- 6940.0--2wx--21012.3 986.8 0.7---------
2019-08-08 18:00:00 20.7 14.1 16.4 25.1 18.4- 6645.0--2wx-921012.0 986.6 0.4- 0.112------
2019-08-08 17:00:00 22.9 13.4 16.9--- 5535.0--3wx--31011.4 986.2 0.2---------
2019-08-08 16:00:00 24.2 13.4 17.5--- 5140.0--3wx---1011.2 986.1 0.1---------
2019-08-08 15:00:00 24.7 13.9 17.9--- 5140.0--4wx-941011.2 986.2 0.4---------
2019-08-08 14:00:00 24.9 13.1 17.6--- 4840.0--5wx-951011.0 986.0 0.4---------
2019-08-08 13:00:00 24.1 14.5 18.0--- 5530.0--3wx--31011.1 986.0 1.0---------
2019-08-08 12:00:00 23.4 13.6 17.2--- 5440.0--5wx-1151010.9 985.8 4.5- 0.16------
2019-08-08 11:00:00 23.8 14.5 17.9--- 5635.0--5wx-1051010.7 985.6 4.3---------
2019-08-08 10:00:00 22.7 15.5 18.0--- 6435.0--5wx-951010.2 985.0 3.7---------
2019-08-08 09:00:00 21.7 16.4 18.1--- 7228.0--6wx-1161006.5 981.3 0.0---------
2019-08-08 08:00:00 19.5 16.9 17.7--- 8530.0--5wx-1151006.7 981.3 0.0---------
2019-08-08 07:00:00 20.2 18.0 18.6--- 8730.0--4wx9941006.6 981.3 0.4---------
2019-08-08 06:00:00 18.5 17.5 17.8 20.0 17.7 18 9435.0--5wx--51006.7 981.3 0.4 15.5 5.012wx---- 8.0
2019-08-08 05:00:00 17.9 17.7 17.7--- 9910.0--3wx---1006.8 981.3 0.6---wx-----
2019-08-08 04:00:00 17.8 17.6 17.6--- 995.0--2wx---1006.4 980.9 0.4---wx-----
2019-08-08 03:00:00 18.1 17.8 17.9--- 985.0--2wx--21006.4 980.9 0.3---wx-----
2019-08-08 02:00:00 18.4 18.2 18.2--- 995.0--1wx--11006.1 980.7 0.0---wx-----
2019-08-08 01:00:00 18.2 18.0 18.0--- 994.3--1wx--11006.0 980.5 -0.7---wx-----
2019-08-08 00:00:00 18.3 18.1 18.1--- 994.9--1wx--11006.0 980.6 -0.5--6wx-----
2019-08-07 23:00:00 18.4 18.2 18.2--- 994.6--1wx--11006.1 980.7 -0.9---wx-----
2019-08-07 22:00:00 18.6 18.3 18.4--- 986.0--2wx--21006.6 981.2 -1.1---wx-----
2019-08-07 21:00:00 19.0 18.7 18.8--- 984.2--2wx---1006.5 981.1 -1.2---wx-----
2019-08-07 20:00:00 19.3 18.8 18.9--- 979.0--1wx---1007.0 981.6 -0.9---wx-----
2019-08-07 19:00:00 19.3 18.6 18.8--- 9616.0--2wx---1007.7 982.3 -0.7---------
2019-08-07 18:00:00 20.0 18.8 19.1 28.1 17.1- 9321.0--3wx--31007.6 982.3 -1.1- 10.012------
2019-08-07 17:00:00 21.1 19.2 19.7--- 8935.0--4wx--41007.8 982.5 -1.2---wx-----
2019-08-07 16:00:00 21.7 19.4 20.0--- 8740.0--3wx--31008.2 983.0 -1.5---------
2019-08-07 15:00:00 22.3 19.8 20.5--- 8640.0--2wx--21008.6 983.4 -1.3---------
2019-08-07 14:00:00 20.6 19.9 20.1--- 9616.0--2wx---1009.0 983.7 0.6---wx-----
2019-08-07 13:00:00 18.7 18.2 18.3--- 9711.0--1wx--11010.0 984.5 0.2---wx-----
2019-08-07 12:00:00 17.5 17.0 17.1--- 976.0--3wx-1331010.3 984.7 0.1- 10.06wx-----
2019-08-07 11:00:00 25.9 17.5 20.3--- 6035.0--2wx--21008.0 983.1 -1.3---wx-----
2019-08-07 10:00:00 27.2 17.4 20.7--- 5535.0--3wx--31009.1 984.3 -0.2---------
2019-08-07 09:00:00 26.3 17.9 20.7--- 6030.0--3wx---1009.5 984.6 0.2---------
2019-08-07 08:00:00 24.8 17.8 20.1--- 6535.0--3wx--31009.4 984.4 -0.3---------
2019-08-07 07:00:00 22.4 17.7 19.1--- 7530.0--3wx--31009.7 984.5 -0.2---------
2019-08-07 06:00:00 21.2 17.8 18.8 23.7 18.4 18 8130.0--3wx--31009.7 984.4 0.1 0.2 0.212----- 10.6
2019-08-07 05:00:00 19.3 17.4 17.9--- 8922.0--3wx--31010.2 984.7 0.5---------
2019-08-07 04:00:00 18.5 17.3 17.6--- 9315.0--2wx---1010.2 984.7 0.2---------
2019-08-07 03:00:00 18.7 17.4 17.8--- 9218.0--3wx--31009.8 984.3 -0.5---wx-----
2019-08-07 02:00:00 18.8 17.3 17.7--- 9118.0--2wx--21009.7 984.2 -0.7---wx-----
2019-08-07 01:00:00 18.6 16.4 17.0--- 8730.0--2wx--21010.0 984.5 -0.5---wx-----
2019-08-07 00:00:00 20.0 16.8 17.8--- 8228.0--3wx--31010.2 984.8 -0.3--6wx-----
1.7 ms

 

Print Friendly, PDF & Email